createdAt,value
2024-04-19T00:06:12.750Z,2.5
2024-04-19T00:12:32.794Z,2.5
2024-04-19T00:18:54.763Z,2.3
2024-04-19T00:25:14.689Z,2.3
2024-04-19T00:31:36.695Z,1.4
2024-04-19T00:37:56.776Z,1.4
2024-04-19T00:44:18.741Z,2.4
2024-04-19T00:50:38.712Z,2.4
2024-04-19T00:57:00.725Z,3
2024-04-19T01:03:20.743Z,3
2024-04-19T01:09:42.830Z,2
2024-04-19T01:16:02.693Z,2
2024-04-19T01:22:24.562Z,1
2024-04-19T01:28:44.337Z,1
2024-04-19T01:35:06.193Z,3.1
2024-04-19T01:41:26.299Z,3.1
2024-04-19T01:47:48.277Z,2.2
2024-04-19T01:54:08.383Z,2.2
2024-04-19T02:00:30.269Z,4.2
2024-04-19T02:06:50.371Z,4.2
2024-04-19T02:13:12.182Z,2
2024-04-19T02:19:32.308Z,2
2024-04-19T02:25:54.236Z,2.9
2024-04-19T02:32:14.362Z,2.9
2024-04-19T02:38:36.179Z,0.8
2024-04-19T02:44:56.282Z,0.8
2024-04-19T02:51:18.262Z,1.4
2024-04-19T02:57:38.306Z,1.4
2024-04-19T03:04:00.358Z,1.3
2024-04-19T03:28:42.096Z,2.1
2024-04-19T03:35:01.167Z,2.1
2024-04-19T03:41:23.250Z,2.1
2024-04-19T03:47:43.244Z,2.1
2024-04-19T03:54:05.295Z,1.4
2024-04-19T04:00:25.208Z,1.4
2024-04-19T04:06:47.348Z,1
2024-04-19T04:13:07.186Z,1
2024-04-19T04:19:29.150Z,1
2024-04-19T04:25:49.225Z,1
2024-04-19T04:32:11.190Z,1.2
2024-04-19T04:38:31.153Z,1.2
2024-04-19T04:44:53.302Z,1.7
2024-04-19T04:51:13.240Z,1.7
2024-04-19T04:57:36.973Z,1.7
2024-04-19T05:03:55.321Z,1.7
2024-04-19T05:10:17.263Z,2.3
2024-04-19T05:16:37.191Z,2.3
2024-04-19T05:22:59.158Z,0.8
2024-04-19T05:29:19.372Z,0.8
2024-04-19T05:35:41.342Z,0.1
2024-04-19T05:42:01.199Z,0.1
2024-04-19T05:48:23.236Z,0.9
2024-04-19T05:54:43.197Z,0.9
2024-04-19T06:01:05.419Z,1.2
2024-04-19T06:07:25.357Z,1.2
2024-04-19T06:13:47.299Z,0.6
2024-04-19T06:20:07.291Z,0.6
2024-04-19T06:26:29.354Z,0.5
2024-04-19T06:32:49.385Z,0.5
2024-04-19T06:39:11.290Z,0.2
2024-04-19T06:45:31.348Z,0.2
2024-04-19T06:51:53.430Z,0.2
2024-04-19T06:58:13.138Z,0.2
2024-04-19T07:04:35.201Z,0.2
2024-04-19T07:10:55.206Z,0.2
2024-04-19T07:17:17.229Z,0.4
2024-04-19T07:23:37.193Z,0.4
2024-04-19T07:29:59.268Z,0.3
2024-04-19T07:36:19.352Z,0.3
2024-04-19T07:42:41.289Z,0.2
2024-04-19T07:49:01.343Z,0.2
2024-04-19T07:55:23.252Z,0.2
2024-04-19T08:01:43.164Z,0.2
2024-04-19T08:08:05.182Z,0.1
2024-04-19T08:14:25.388Z,0.1
2024-04-19T08:20:47.171Z,0.4
2024-04-19T08:36:35.045Z,0.2
2024-04-19T08:42:54.178Z,0.2
2024-04-19T08:49:16.257Z,0.5
2024-04-19T08:55:36.268Z,0.5
2024-04-19T09:01:58.154Z,0.5
2024-04-19T09:08:18.309Z,0.5
2024-04-19T09:14:40.184Z,0.2
2024-04-19T09:21:00.142Z,0.2
2024-04-19T09:27:22.283Z,0.5
2024-04-19T09:33:42.269Z,0.5
2024-04-19T09:40:04.389Z,0.5
2024-04-19T09:46:24.170Z,0.5
2024-04-19T09:52:46.225Z,1.5
2024-04-19T09:59:06.284Z,1.5
2024-04-19T10:05:28.223Z,2.4
2024-04-19T10:11:48.433Z,2.4
2024-04-19T10:18:10.667Z,2.7
2024-04-19T10:24:30.586Z,2.7
2024-04-19T10:30:52.280Z,3
2024-04-19T10:37:12.189Z,3
2024-04-19T10:43:34.172Z,2.1
2024-04-19T10:49:54.216Z,2.1
2024-04-19T10:56:16.209Z,1.6
2024-04-19T11:02:36.323Z,1.6
2024-04-19T11:08:58.224Z,0.8
2024-04-19T11:15:18.366Z,0.8
2024-04-19T11:21:40.174Z,1.9
2024-04-19T11:28:00.229Z,1.9
2024-04-19T11:34:22.227Z,1.2
2024-04-19T11:40:42.415Z,1.2
2024-04-19T11:47:04.246Z,0.8
2024-04-19T11:53:24.195Z,0.8
2024-04-19T11:59:46.247Z,1.7
2024-04-19T12:06:06.256Z,1.7
2024-04-19T12:18:48.430Z,0.2
2024-04-19T12:25:10.553Z,0.8
2024-04-19T12:31:30.445Z,0.8
2024-04-19T12:37:52.179Z,0.5
2024-04-19T12:44:12.338Z,0.5
2024-04-19T12:50:34.257Z,1.6
2024-04-19T12:56:54.207Z,1.6
2024-04-19T13:03:16.223Z,1
2024-04-19T13:20:05.714Z,0.3
2024-04-19T13:26:27.720Z,1.8
2024-04-19T13:32:47.179Z,1.8
2024-04-19T13:39:09.200Z,1.8
2024-04-19T13:45:29.227Z,1.8
2024-04-19T13:51:51.302Z,0.9
2024-04-19T13:58:11.164Z,0.9
2024-04-19T14:04:33.299Z,0.1
2024-04-19T14:10:53.504Z,0.1
2024-04-19T14:17:15.221Z,0.2
2024-04-19T14:23:35.313Z,0.2
2024-04-19T14:29:57.444Z,0.4
2024-04-19T14:36:17.398Z,0.4
2024-04-19T14:42:39.241Z,0.2
2024-04-19T14:48:59.448Z,0.2
2024-04-19T14:55:21.212Z,2.4
2024-04-19T15:01:41.381Z,2.4
2024-04-19T15:08:03.264Z,0.5
2024-04-19T15:14:23.367Z,0.5
2024-04-19T15:20:45.272Z,0.3
2024-04-19T15:27:05.490Z,0.3
2024-04-19T15:33:27.345Z,0.5
2024-04-19T15:39:47.236Z,0.5
2024-04-19T15:46:09.331Z,0.3
2024-04-19T15:52:29.219Z,0.3
2024-04-19T15:58:51.275Z,0.8
2024-04-19T16:05:11.339Z,0.8
2024-04-19T16:11:33.556Z,0.6
2024-04-19T16:17:53.182Z,0.6
2024-04-19T16:24:15.176Z,0.4
2024-04-19T16:30:35.241Z,0.4
2024-04-19T16:36:57.304Z,1.6
2024-04-19T16:43:17.338Z,1.6
2024-04-19T16:49:39.407Z,0.8
2024-04-19T16:55:59.163Z,0.8
2024-04-19T17:02:21.180Z,0.5
2024-04-19T17:08:41.196Z,0.5
2024-04-19T17:15:03.178Z,1
2024-04-19T17:21:23.324Z,1
2024-04-19T17:27:45.262Z,1
2024-04-19T17:34:05.227Z,1
2024-04-19T17:40:27.257Z,1.6
2024-04-19T17:57:08.810Z,1
2024-04-19T18:03:30.683Z,2.3
2024-04-19T18:09:50.155Z,2.3
2024-04-19T18:16:12.234Z,2.3
2024-04-19T18:22:32.167Z,2.3
2024-04-19T18:28:54.191Z,0.4
2024-04-19T18:35:14.152Z,0.4
2024-04-19T18:41:35.266Z,2.1
2024-04-19T18:47:55.301Z,2.1
2024-04-19T18:54:17.329Z,1
2024-04-19T19:00:37.254Z,1
2024-04-19T19:06:59.265Z,0.2
2024-04-19T19:13:19.201Z,0.2
2024-04-19T19:19:41.145Z,0.8
2024-04-19T19:26:03.747Z,0.8
2024-04-19T19:32:23.325Z,0.5
2024-04-19T19:38:43.172Z,0.5
2024-04-19T19:45:05.125Z,1
2024-04-19T19:51:25.614Z,1
2024-04-19T19:57:48.449Z,0.6
2024-04-19T20:04:08.249Z,0.6
2024-04-19T20:10:30.362Z,1.1
2024-04-19T20:16:50.239Z,1.1
2024-04-19T20:23:12.182Z,0.1
2024-04-19T20:29:32.403Z,0.1
2024-04-19T20:35:54.262Z,1.1
2024-04-19T20:42:15.723Z,1.1
2024-04-19T20:48:36.349Z,1.7
2024-04-19T20:54:56.244Z,1.7
2024-04-19T21:01:18.339Z,0.3
2024-04-19T21:07:38.145Z,0.3
2024-04-19T21:14:00.140Z,0.4
2024-04-19T21:20:20.374Z,0.4
2024-04-19T21:26:42.188Z,2.1
2024-04-19T21:33:02.411Z,2.1
2024-04-19T21:39:24.254Z,1.2
2024-04-19T21:45:44.224Z,1.2
2024-04-19T21:52:06.191Z,1.1
2024-04-19T21:58:26.231Z,1.1
2024-04-19T22:22:42.155Z,3.3
2024-04-19T22:29:02.328Z,3.3
2024-04-19T22:35:24.141Z,3.3
2024-04-19T22:41:44.550Z,3.3
2024-04-19T22:48:06.199Z,1.3
2024-04-19T22:54:26.322Z,1.3
2024-04-19T23:00:48.306Z,2.8
2024-04-19T23:07:08.212Z,2.8
2024-04-19T23:13:30.267Z,1.8
2024-04-19T23:19:50.264Z,1.8
2024-04-19T23:26:12.181Z,3.4
2024-04-19T23:32:32.284Z,3.4
2024-04-19T23:38:54.269Z,4.7
2024-04-19T23:45:14.366Z,4.7
2024-04-19T23:51:36.306Z,3
2024-04-19T23:57:56.350Z,3
